Aviation Digital Data Service (ADDS)

Output produced by TAFs form (1738 UTC 21 April 2018)
found at http://aviationweather.gov/adds/tafs/
 
RJFF 211730Z AUTO 10003KT 9999 NCD 16/13 Q1019 RMK A3011
TAF RJFF 211705Z 2118/2300 15005KT 9999 FEW030 
     BECMG 2201/2203 33010KT 
     BECMG 2209/2212 15004KT